Time;durP1;ratioP1;P1;durP2;ratioP2;P2;SDS_P1;SDS_P2;PMS_P1;PMS_P2;Temp;Humidity;BMP_temperature;BMP_pressure;BME280_temperature;BME280_humidity;BME280_pressure;Samples;Min_cycle;Max_cycle;Signal;HPM_P1;HPM_P2
2021/03/09 00:00:15;;;;;;;25.13;13.13;;;;;;;7.35;64.05;99061.00;4812553;29;20034;-78
2021/03/09 00:02:41;;;;;;;26.55;13.45;;;;;;;7.35;63.64;99055.69;4812496;29;20065;-78
2021/03/09 00:05:08;;;;;;;18.38;12.20;;;;;;;7.34;62.93;99054.88;4828441;29;20053;-78
2021/03/09 00:07:33;;;;;;;19.70;11.93;;;;;;;7.34;63.03;99051.44;4811200;29;20125;-78
2021/03/09 00:09:59;;;;;;;16.92;10.20;;;;;;;7.34;62.23;99048.75;4811408;29;20121;-78
2021/03/09 00:12:26;;;;;;;19.30;11.30;;;;;;;7.36;61.15;99046.63;4812367;29;20390;-78
2021/03/09 00:14:51;;;;;;;21.70;10.60;;;;;;;7.34;60.26;99046.88;4812288;29;20085;-78
2021/03/09 00:17:30;;;;;;;15.75;10.40;;;;;;;7.34;59.26;99044.22;4812303;29;20504;-80
2021/03/09 00:20:24;;;;;;;17.85;9.45;;;;;;;7.34;58.56;99054.09;4811280;29;20038;-80
2021/03/09 00:23:18;;;;;;;16.88;12.05;;;;;;;7.31;57.96;99054.56;4826980;29;20034;-80
2021/03/09 00:25:44;;;;;;;18.52;9.88;;;;;;;7.30;58.20;99047.66;4798964;29;20050;-80
2021/03/09 00:28:16;;;;;;;19.92;10.77;;;;;;;7.27;56.98;99050.84;4811557;29;20461;-80
2021/03/09 00:34:03;;;;;;;16.52;11.55;;;;;;;7.21;55.96;99049.97;4824059;29;20049;-80
2021/03/09 00:36:29;;;;;;;18.13;10.43;;;;;;;7.14;56.52;99042.22;4828399;29;20042;-79
2021/03/09 00:39:07;;;;;;;19.17;11.82;;;;;;;7.14;56.05;99058.19;4811319;29;20030;-80
2021/03/09 00:42:21;;;;;;;19.97;11.87;;;;;;;7.11;56.13;99055.22;4812673;29;20037;-81
2021/03/09 00:49:19;;;;;;;24.45;11.70;;;;;;;7.11;56.16;99056.00;4718604;30;20157;-82
2021/03/09 00:52:42;;;;;;;18.27;10.43;;;;;;;7.13;56.38;99053.09;4719571;30;20061;-82
2021/03/09 01:06:42;;;;;;;19.73;12.32;;;;;;;6.95;58.14;99052.41;4825676;29;20065;-80
2021/03/09 01:09:07;;;;;;;21.73;12.02;;;;;;;6.95;58.27;99051.63;4809064;29;20039;-80
2021/03/09 01:11:33;;;;;;;21.80;12.35;;;;;;;6.97;58.42;99045.00;4809383;29;20083;-79
2021/03/09 01:13:59;;;;;;;21.58;12.25;;;;;;;6.96;58.89;99043.38;4818023;29;20093;-79
2021/03/09 01:16:24;;;;;;;20.02;11.52;;;;;;;6.97;59.32;99046.84;4823870;29;20018;-80
2021/03/09 01:18:50;;;;;;;21.52;12.20;;;;;;;6.99;59.70;99048.19;4827692;29;20427;-80
2021/03/09 01:21:15;;;;;;;17.45;11.38;;;;;;;6.98;59.59;99040.47;4810614;29;20030;-78
2021/03/09 01:24:21;;;;;;;18.45;11.60;;;;;;;6.99;59.61;99040.22;4816043;29;20041;-80
2021/03/09 01:27:57;;;;;;;18.45;10.68;;;;;;;6.97;60.30;99039.69;4776167;30;20044;-83
2021/03/09 01:37:57;;;;;;;18.05;9.25;;;;;;;6.89;60.54;99048.88;4810753;29;20440;-79
2021/03/09 01:40:24;;;;;;;18.20;10.00;;;;;;;6.87;60.48;99051.03;4798997;29;20129;-79
2021/03/09 01:42:51;;;;;;;16.67;9.18;;;;;;;6.84;60.62;99046.19;4811427;29;20031;-79
2021/03/09 01:45:16;;;;;;;14.45;10.38;;;;;;;6.81;60.80;99046.72;4810274;29;20041;-78
2021/03/09 01:47:46;;;;;;;17.63;9.43;;;;;;;6.76;61.10;99054.59;4824952;29;20121;-79
2021/03/09 01:50:13;;;;;;;19.38;10.85;;;;;;;6.73;61.28;99055.13;4825510;29;20072;-78
2021/03/09 01:52:40;;;;;;;18.00;9.45;;;;;;;6.67;61.14;99051.59;4826145;29;20146;-79
2021/03/09 01:55:11;;;;;;;17.10;9.60;;;;;;;6.63;61.40;99055.81;4840514;29;20030;-79
2021/03/09 01:57:37;;;;;;;18.17;9.25;;;;;;;6.59;61.36;99059.22;4825563;29;20042;-79
2021/03/09 02:00:07;;;;;;;16.42;9.38;;;;;;;6.54;61.80;99057.31;4826819;29;20038;-79
2021/03/09 02:02:33;;;;;;;17.60;10.40;;;;;;;6.50;61.80;99061.53;4826520;29;20038;-78
2021/03/09 02:05:00;;;;;;;17.25;10.52;;;;;;;6.47;62.05;99054.84;4827053;29;20208;-79
2021/03/09 02:07:26;;;;;;;19.25;10.35;;;;;;;6.44;62.07;99050.03;4825974;29;20121;-79
2021/03/09 02:09:53;;;;;;;17.10;10.85;;;;;;;6.41;62.13;99055.84;4827831;29;20034;-78
2021/03/09 02:12:23;;;;;;;18.48;10.15;;;;;;;6.38;62.23;99051.84;4825668;29;20035;-79
2021/03/09 02:15:28;;;;;;;18.88;10.82;;;;;;;6.34;62.59;99052.56;4810732;29;20133;-78
2021/03/09 02:18:11;;;;;;;21.42;10.43;;;;;;;6.28;62.67;99048.25;4770335;30;20092;-79
2021/03/09 02:20:55;;;;;;;24.00;11.45;;;;;;;6.22;62.56;99045.50;4808927;29;20421;-79
2021/03/09 02:24:01;;;;;;;23.15;9.68;;;;;;;6.16;63.23;99054.47;4808536;29;20035;-79
2021/03/09 02:26:36;;;;;;;17.92;9.27;;;;;;;6.10;62.46;99055.47;4809423;29;20044;-78
2021/03/09 02:29:18;;;;;;;14.30;9.32;;;;;;;6.04;62.66;99057.25;4808285;29;20038;-79
2021/03/09 02:32:06;;;;;;;15.85;8.98;;;;;;;5.99;62.52;99059.81;4810559;29;20047;-79
2021/03/09 02:34:36;;;;;;;15.82;9.95;;;;;;;5.96;62.40;99067.44;4808688;29;20125;-79
2021/03/09 02:41:55;;;;;;;16.00;9.90;;;;;;;5.84;62.84;99065.69;4804385;29;20077;-80
2021/03/09 02:46:03;;;;;;;16.48;9.30;;;;;;;5.78;63.07;99072.00;4810822;29;20038;-80
2021/03/09 02:56:25;;;;;;;14.38;8.68;;;;;;;5.64;63.19;99074.19;4780741;29;20114;-78
2021/03/09 02:58:56;;;;;;;18.80;8.85;;;;;;;5.64;63.30;99076.00;4792212;29;20070;-79
2021/03/09 03:01:25;;;;;;;12.63;8.60;;;;;;;5.61;63.41;99078.13;4807366;29;20047;-79
2021/03/09 03:03:53;;;;;;;17.95;9.63;;;;;;;5.60;63.52;99087.13;4792943;29;20404;-79
2021/03/09 03:06:19;;;;;;;18.02;9.60;;;;;;;5.59;63.24;99090.81;4805399;29;20031;-78
2021/03/09 03:08:45;;;;;;;15.68;9.45;;;;;;;5.57;63.81;99084.94;4792631;29;20081;-78
2021/03/09 03:11:13;;;;;;;13.05;8.80;;;;;;;5.53;63.35;99088.31;4792207;29;20030;-78
2021/03/09 03:13:40;;;;;;;17.50;9.55;;;;;;;5.53;63.62;99102.41;4808650;29;20071;-78
2021/03/09 03:16:07;;;;;;;16.83;9.98;;;;;;;5.48;63.51;99096.19;4792967;29;20032;-78
2021/03/09 03:18:38;;;;;;;21.23;10.98;;;;;;;5.45;63.49;99090.31;4810151;29;20039;-77
2021/03/09 03:21:05;;;;;;;18.65;10.27;;;;;;;5.42;63.46;99098.78;4806731;29;20039;-77
2021/03/09 03:23:31;;;;;;;16.88;10.40;;;;;;;5.40;64.02;99102.72;4792473;29;20031;-77
2021/03/09 03:26:02;;;;;;;16.25;10.07;;;;;;;5.35;63.68;99095.47;4792587;29;20042;-78
2021/03/09 03:28:27;;;;;;;18.23;9.93;;;;;;;5.33;64.04;99097.56;4793727;29;20589;-77
2021/03/09 03:30:52;;;;;;;19.27;10.80;;;;;;;5.27;64.17;99093.22;4788116;29;20051;-77
2021/03/09 03:33:18;;;;;;;16.60;9.65;;;;;;;5.24;64.35;99099.81;4804988;29;20023;-78
2021/03/09 03:35:50;;;;;;;18.92;11.10;;;;;;;5.21;63.97;99097.66;4809067;29;20039;-78
2021/03/09 03:38:28;;;;;;;17.40;10.38;;;;;;;5.18;64.04;99102.63;4793438;29;20442;-79
2021/03/09 03:41:42;;;;;;;20.30;10.13;;;;;;;5.13;64.22;99098.81;4806222;29;20108;-79
2021/03/09 03:44:07;;;;;;;18.05;10.27;;;;;;;5.08;64.33;99109.34;4781078;29;20077;-78
2021/03/09 03:46:33;;;;;;;16.90;10.07;;;;;;;5.05;63.93;99109.00;4789293;29;20062;-78
2021/03/09 03:48:58;;;;;;;21.23;10.48;;;;;;;5.03;64.11;99113.72;4789531;29;20114;-78
2021/03/09 03:51:32;;;;;;;14.23;9.63;;;;;;;4.99;64.12;99118.69;4790268;29;20045;-78
2021/03/09 03:54:31;;;;;;;21.65;10.48;;;;;;;4.95;63.83;99118.38;4789673;29;20569;-78
2021/03/09 03:57:22;;;;;;;18.13;10.23;;;;;;;4.91;63.98;99121.75;4804948;29;20122;-78
2021/03/09 03:59:52;;;;;;;16.05;9.25;;;;;;;4.83;63.75;99109.66;4804374;29;20035;-79
2021/03/09 04:02:19;;;;;;;16.17;9.38;;;;;;;4.79;63.86;99114.63;4806457;29;20033;-80
2021/03/09 04:04:49;;;;;;;16.20;9.48;;;;;;;4.72;64.13;99113.97;4788903;29;20038;-79
2021/03/09 04:07:22;;;;;;;17.25;9.73;;;;;;;4.70;64.24;99109.94;4805078;29;20107;-79
2021/03/09 04:09:51;;;;;;;15.73;9.95;;;;;;;4.68;64.17;99107.53;4788103;29;20034;-79
2021/03/09 04:12:18;;;;;;;17.80;9.18;;;;;;;4.65;64.61;99111.47;4787788;29;20489;-79
2021/03/09 04:14:44;;;;;;;19.65;9.68;;;;;;;4.63;64.23;99108.25;4773658;29;20035;-79
2021/03/09 04:17:11;;;;;;;16.75;9.60;;;;;;;4.58;64.16;99113.44;4787322;29;20031;-78
2021/03/09 04:19:38;;;;;;;19.98;11.02;;;;;;;4.52;64.17;99116.22;4786957;29;20091;-77
2021/03/09 04:22:04;;;;;;;18.05;10.07;;;;;;;4.48;64.42;99124.63;4788534;29;20027;-78
2021/03/09 04:24:30;;;;;;;23.33;11.27;;;;;;;4.46;64.32;99123.25;4805605;29;20058;-77
2021/03/09 04:26:56;;;;;;;19.95;11.60;;;;;;;4.46;64.92;99117.97;4791557;29;20034;-77
2021/03/09 04:29:22;;;;;;;21.58;11.77;;;;;;;4.45;64.82;99125.09;4790262;29;20027;-77
2021/03/09 04:31:48;;;;;;;23.85;13.88;;;;;;;4.44;64.70;99114.75;4803049;29;20464;-77
2021/03/09 04:34:13;;;;;;;23.85;13.73;;;;;;;4.45;64.78;99114.50;4803230;29;20495;-78
2021/03/09 04:36:42;;;;;;;24.95;15.48;;;;;;;4.45;64.28;99113.69;4773161;30;20038;-77
2021/03/09 04:39:09;;;;;;;22.35;14.43;;;;;;;4.45;64.26;99121.66;4806679;29;20422;-77
2021/03/09 04:41:36;;;;;;;21.88;12.52;;;;;;;4.48;64.42;99126.50;4806291;29;20041;-77
2021/03/09 04:44:02;;;;;;;21.77;12.43;;;;;;;4.45;64.60;99124.28;4790800;29;20050;-79
2021/03/09 04:46:28;;;;;;;20.77;12.45;;;;;;;4.46;64.32;99124.06;4789720;29;20490;-79
2021/03/09 04:48:54;;;;;;;23.30;12.38;;;;;;;4.46;64.14;99123.25;4806420;29;20416;-76
2021/03/09 04:51:20;;;;;;;20.50;11.88;;;;;;;4.47;63.97;99117.72;4806080;29;20043;-76
2021/03/09 04:53:46;;;;;;;19.65;10.93;;;;;;;4.53;63.97;99131.88;4806085;29;20042;-76
2021/03/09 04:56:12;;;;;;;17.40;10.38;;;;;;;4.60;63.95;99127.25;4804197;29;20042;-78
2021/03/09 04:58:38;;;;;;;19.13;10.40;;;;;;;4.65;63.94;99127.34;4805688;29;20043;-77
2021/03/09 05:01:04;;;;;;;19.67;11.70;;;;;;;4.75;63.57;99134.69;4805183;29;20031;-78
2021/03/09 05:03:31;;;;;;;17.08;11.73;;;;;;;4.85;63.62;99134.09;4820785;29;20482;-78
2021/03/09 05:05:56;;;;;;;22.73;12.80;;;;;;;4.96;63.54;99135.09;4805167;29;20043;-78
2021/03/09 05:08:21;;;;;;;29.33;13.77;;;;;;;5.09;63.71;99137.47;4805545;29;20041;-78
2021/03/09 05:10:47;;;;;;;30.30;15.20;;;;;;;5.24;63.22;99138.78;4805970;29;20049;-78
2021/03/09 05:13:15;;;;;;;25.27;14.05;;;;;;;5.38;62.72;99133.97;4805491;29;20065;-77
2021/03/09 05:15:40;;;;;;;30.67;15.75;;;;;;;5.55;62.42;99141.94;4805514;29;20126;-77
2021/03/09 05:18:06;;;;;;;26.05;14.70;;;;;;;5.72;62.07;99144.59;4805511;29;20125;-77
2021/03/09 05:20:31;;;;;;;27.25;16.27;;;;;;;5.89;61.99;99148.06;4806448;29;20118;-76
2021/03/09 05:22:57;;;;;;;25.60;17.17;;;;;;;6.08;60.71;99151.28;4805438;29;20031;-77
2021/03/09 05:25:22;;;;;;;32.10;18.00;;;;;;;6.27;60.53;99147.56;4807054;29;20042;-78
2021/03/09 05:27:48;;;;;;;29.50;16.83;;;;;;;6.51;59.88;99153.47;4806356;29;20079;-77
2021/03/09 05:30:16;;;;;;;54.72;27.98;;;;;;;6.71;59.70;99155.56;4790655;29;20042;-77
2021/03/09 05:32:43;;;;;;;40.95;20.85;;;;;;;6.88;58.48;99151.00;4809967;29;20050;-79
2021/03/09 05:35:09;;;;;;;35.13;18.95;;;;;;;7.02;57.82;99158.59;4791490;29;20039;-79
2021/03/09 05:37:34;;;;;;;44.78;21.70;;;;;;;7.18;57.64;99154.22;4789786;29;20043;-78
2021/03/09 05:39:59;;;;;;;32.13;19.17;;;;;;;7.35;57.08;99154.13;4806894;29;20470;-80
2021/03/09 05:42:25;;;;;;;28.90;15.40;;;;;;;7.53;55.96;99143.13;4790193;29;20035;-79
2021/03/09 05:44:51;;;;;;;27.88;15.70;;;;;;;7.69;55.23;99146.69;4807061;29;20064;-79
2021/03/09 05:47:16;;;;;;;23.38;15.13;;;;;;;7.77;54.79;99148.09;4805469;29;20031;-79
2021/03/09 05:50:38;;;;;;;26.58;15.85;;;;;;;7.88;55.59;99156.16;4808886;29;20034;-82
2021/03/09 05:53:35;;;;;;;30.92;15.80;;;;;;;8.02;55.40;99167.97;4786104;29;20053;-82
2021/03/09 06:03:08;;;;;;;35.38;21.30;;;;;;;8.08;53.68;99148.31;4852298;29;20103;-79
2021/03/09 06:05:43;;;;;;;38.60;20.85;;;;;;;8.22;52.83;99158.53;4827145;29;20456;-78
2021/03/09 06:08:13;;;;;;;35.17;19.65;;;;;;;8.29;51.29;99159.09;4842912;29;20033;-82
2021/03/09 06:10:38;;;;;;;30.48;18.60;;;;;;;8.22;51.31;99174.50;4826631;29;20050;-78
2021/03/09 06:13:04;;;;;;;29.08;17.88;;;;;;;8.27;51.59;99174.53;4856493;29;20097;-78
2021/03/09 06:15:29;;;;;;;31.98;17.65;;;;;;;8.31;50.97;99179.09;4840162;29;20026;-78
2021/03/09 06:17:57;;;;;;;26.65;14.93;;;;;;;8.43;50.95;99181.53;4842212;29;20037;-79
2021/03/09 06:20:40;;;;;;;21.60;13.65;;;;;;;8.55;50.56;99178.69;4824995;29;20038;-81
2021/03/09 06:24:09;;;;;;;30.65;15.82;;;;;;;8.70;50.36;99183.31;4843489;29;20099;-82
2021/03/09 06:27:03;;;;;;;35.35;18.98;;;;;;;8.85;50.93;99187.09;4839703;29;20071;-80
2021/03/09 06:33:08;;;;;;;46.13;24.38;;;;;;;9.12;51.04;99200.28;4839904;29;20519;-78
2021/03/09 06:35:38;;;;;;;38.95;23.15;;;;;;;9.22;49.76;99215.53;4820659;29;20527;-77
2021/03/09 06:38:23;;;;;;;21.52;12.85;;;;;;;9.12;46.98;99222.41;4840808;29;20058;-78
2021/03/09 06:41:32;;;;;;;26.98;14.60;;;;;;;8.85;45.91;99219.91;4848609;29;20029;-82
2021/03/09 06:44:33;;;;;;;24.58;13.93;;;;;;;8.69;46.55;99228.91;4843527;29;20255;-81
2021/03/09 06:47:08;;;;;;;23.08;14.25;;;;;;;8.51;45.58;99220.28;4769710;30;20105;-81
2021/03/09 06:50:15;;;;;;;21.60;11.88;;;;;;;8.40;44.92;99213.22;4806972;29;20107;-80
2021/03/09 06:53:02;;;;;;;23.33;13.27;;;;;;;8.41;44.75;99220.16;4810398;29;20030;-78
2021/03/09 06:56:27;;;;;;;19.88;11.75;;;;;;;8.49;45.05;99217.06;4820090;29;20095;-79
2021/03/09 06:58:53;;;;;;;17.02;10.60;;;;;;;8.63;44.76;99217.41;4782051;30;20035;-80
2021/03/09 07:01:20;;;;;;;22.23;11.23;;;;;;;8.75;44.50;99220.69;4794175;30;20035;-76
2021/03/09 07:03:45;;;;;;;18.15;10.10;;;;;;;8.93;44.82;99221.28;4804787;29;20085;-77
2021/03/09 07:06:11;;;;;;;20.58;11.38;;;;;;;9.15;43.33;99220.28;4803735;29;20428;-79
2021/03/09 07:09:10;;;;;;;19.35;10.38;;;;;;;9.36;43.20;99218.47;4789350;29;20038;-87
2021/03/09 07:11:36;;;;;;;15.38;10.52;;;;;;;9.57;43.07;99219.31;4795591;29;20126;-84
2021/03/09 07:14:01;;;;;;;19.98;11.07;;;;;;;9.72;42.71;99214.00;4798361;29;20520;-82
2021/03/09 07:16:28;;;;;;;31.33;14.35;;;;;;;9.87;42.91;99218.53;4826728;29;20040;-85
2021/03/09 07:18:54;;;;;;;31.38;14.73;;;;;;;10.02;43.47;99208.94;4821529;29;20500;-83
2021/03/09 07:21:20;;;;;;;27.02;14.50;;;;;;;10.14;43.32;99214.00;4819290;29;20077;-85
2021/03/09 07:23:45;;;;;;;23.75;13.63;;;;;;;10.24;42.85;99212.13;4810701;29;20072;-82
2021/03/09 07:26:14;;;;;;;28.02;15.65;;;;;;;10.34;43.21;99213.16;4822329;29;20500;-78
2021/03/09 07:28:42;;;;;;;30.00;18.70;;;;;;;10.41;44.05;99225.22;4822497;29;20042;-83
2021/03/09 07:31:08;;;;;;;27.27;17.95;;;;;;;10.49;43.31;99231.09;4822928;29;20401;-85
2021/03/09 07:33:34;;;;;;;37.13;20.98;;;;;;;10.53;43.67;99222.28;4838526;29;20041;-79
2021/03/09 07:36:03;;;;;;;38.10;21.27;;;;;;;10.53;44.11;99224.94;4821043;29;20038;-84
2021/03/09 07:38:29;;;;;;;37.85;21.95;;;;;;;10.51;43.73;99232.44;4838832;29;20069;-78
2021/03/09 07:40:55;;;;;;;41.78;23.85;;;;;;;10.55;44.20;99236.16;4839752;29;20069;-78
2021/03/09 07:43:21;;;;;;;35.13;20.00;;;;;;;10.54;43.59;99231.09;4839032;29;20077;-77
2021/03/09 07:45:47;;;;;;;16.30;9.45;;;;;;;10.44;39.25;99228.44;4822042;29;20033;-77
2021/03/09 07:48:21;;;;;;;17.70;9.57;;;;;;;10.36;39.28;99224.41;4838870;29;20488;-78
2021/03/09 07:50:49;;;;;;;13.38;8.50;;;;;;;10.27;38.95;99228.72;4819588;29;20125;-77
2021/03/09 07:53:16;;;;;;;17.75;7.63;;;;;;;10.23;38.54;99225.78;4805374;29;20041;-81
2021/03/09 07:55:43;;;;;;;14.68;8.52;;;;;;;10.22;39.76;99229.50;4822462;29;20427;-79
2021/03/09 07:59:12;;;;;;;19.07;9.03;;;;;;;10.22;38.36;99227.63;4822476;29;20496;-89
2021/03/09 08:02:37;;;;;;;12.13;6.88;;;;;;;10.19;38.59;99224.69;4816616;29;20061;-91
2021/03/09 08:05:51;;;;;;;15.43;8.38;;;;;;;10.09;38.55;99226.31;4831019;29;20042;-84
2021/03/09 08:08:55;;;;;;;14.45;7.43;;;;;;;10.12;38.98;99237.50;4843434;29;20042;-90
2021/03/09 08:11:22;;;;;;;8.40;6.90;;;;;;;10.19;38.99;99243.38;4829778;29;20612;-87
2021/03/09 08:14:03;;;;;;;9.38;6.63;;;;;;;10.30;39.75;99239.66;4839946;29;20115;-89
2021/03/09 08:16:33;;;;;;;10.05;7.25;;;;;;;10.38;38.44;99228.44;4822060;29;20068;-84
2021/03/09 08:19:25;;;;;;;8.82;5.50;;;;;;;10.48;36.82;99227.63;4828820;29;20085;-83
2021/03/09 08:22:03;;;;;;;16.77;6.22;;;;;;;10.55;36.70;99214.75;4824347;29;20046;-84
2021/03/09 08:24:41;;;;;;;12.27;6.80;;;;;;;10.64;36.81;99212.31;4819132;29;20038;-80
2021/03/09 08:27:32;;;;;;;12.93;7.13;;;;;;;10.68;35.88;99213.41;4823273;29;20496;-78
2021/03/09 08:30:26;;;;;;;8.13;6.22;;;;;;;10.70;34.63;99216.59;4826603;29;20112;-79
2021/03/09 08:32:52;;;;;;;11.05;6.80;;;;;;;10.76;35.35;99217.38;4826585;29;20137;-79
2021/03/09 08:35:18;;;;;;;9.77;5.72;;;;;;;10.83;35.65;99219.78;4826623;29;20658;-79
2021/03/09 08:37:49;;;;;;;12.23;6.82;;;;;;;10.93;35.82;99219.72;4826193;29;20477;-80
2021/03/09 08:40:17;;;;;;;11.10;8.02;;;;;;;11.02;34.37;99218.09;4842942;29;20026;-79
2021/03/09 08:43:01;;;;;;;10.50;6.45;;;;;;;11.12;34.63;99213.75;4825685;29;20034;-80
2021/03/09 08:45:35;;;;;;;9.55;6.30;;;;;;;11.24;35.09;99216.13;4826085;29;20034;-79
2021/03/09 08:48:01;;;;;;;9.90;5.70;;;;;;;11.31;32.78;99212.03;4826185;29;20030;-79
2021/03/09 08:50:40;;;;;;;6.95;5.47;;;;;;;11.43;32.98;99217.06;4825945;29;20032;-79
2021/03/09 08:53:26;;;;;;;10.93;6.28;;;;;;;11.52;32.70;99214.59;4826398;29;20041;-78
2021/03/09 08:56:02;;;;;;;6.85;5.22;;;;;;;11.69;32.43;99212.34;4826055;29;20116;-79
2021/03/09 08:58:28;;;;;;;6.80;5.05;;;;;;;11.80;31.45;99209.59;4825780;29;20034;-79
2021/03/09 09:00:54;;;;;;;8.63;5.30;;;;;;;11.88;31.26;99210.84;4826221;29;20041;-78
2021/03/09 09:03:36;;;;;;;10.68;5.20;;;;;;;11.96;30.85;99211.13;4825809;29;20030;-79
2021/03/09 09:06:04;;;;;;;9.55;5.68;;;;;;;12.00;30.44;99216.72;4825762;29;20037;-78
2021/03/09 09:08:30;;;;;;;11.88;5.50;;;;;;;11.87;30.64;99210.06;4842577;29;20037;-79
2021/03/09 09:10:56;;;;;;;8.82;5.90;;;;;;;11.70;30.25;99213.16;4825785;29;20033;-79
2021/03/09 09:13:37;;;;;;;8.30;5.78;;;;;;;11.61;31.02;99206.78;4825662;29;20042;-79
2021/03/09 09:16:16;;;;;;;7.75;5.00;;;;;;;11.53;29.16;99219.69;4825733;29;20040;-77
2021/03/09 09:18:42;;;;;;;6.15;5.20;;;;;;;11.54;28.86;99209.78;4825498;29;20033;-78
2021/03/09 09:21:07;;;;;;;7.70;4.80;;;;;;;11.49;28.09;99218.63;4825738;29;20101;-81
2021/03/09 09:23:36;;;;;;;8.98;5.50;;;;;;;11.52;29.90;99206.56;4825522;29;20121;-79
2021/03/09 09:26:02;;;;;;;8.60;4.80;;;;;;;11.58;29.82;99204.66;4825680;29;20030;-80
2021/03/09 09:28:37;;;;;;;7.45;5.07;;;;;;;11.62;30.34;99205.69;4825417;29;20034;-80
2021/03/09 09:31:12;;;;;;;9.50;5.60;;;;;;;11.68;29.26;99200.03;4825535;29;20560;-80
2021/03/09 09:33:37;;;;;;;6.72;5.07;;;;;;;11.64;28.98;99195.50;4840608;29;20512;-81
2021/03/09 09:36:03;;;;;;;13.32;5.53;;;;;;;11.73;30.83;99198.38;4841735;29;20053;-80
2021/03/09 09:38:29;;;;;;;9.27;6.25;;;;;;;11.82;30.85;99196.72;4841767;29;20077;-80
2021/03/09 09:40:57;;;;;;;8.75;5.55;;;;;;;11.79;30.08;99191.91;4825364;29;20057;-80
2021/03/09 09:43:25;;;;;;;10.60;5.75;;;;;;;11.84;30.34;99199.94;4825332;29;20034;-80
2021/03/09 09:45:55;;;;;;;7.95;5.93;;;;;;;11.83;29.52;99196.44;4825048;29;20041;-80
2021/03/09 09:48:29;;;;;;;6.57;5.28;;;;;;;11.92;31.69;99185.13;4825240;29;20037;-79
2021/03/09 09:50:58;;;;;;;8.48;5.07;;;;;;;12.03;29.53;99191.22;4824995;29;20029;-80
2021/03/09 09:53:29;;;;;;;;;;;;;;;12.11;28.33;99180.69;4825613;29;20033;-79
2021/03/09 09:55:55;;;;;;;9.48;5.95;;;;;;;12.17;29.98;99181.44;4840326;29;19920;-79
2021/03/09 09:58:22;;;;;;;11.18;5.75;;;;;;;12.28;30.12;99179.44;4820740;29;20034;-79
2021/03/09 10:00:55;;;;;;;9.43;5.80;;;;;;;12.32;29.53;99181.28;4841629;29;20495;-79
2021/03/09 10:03:21;;;;;;;7.28;5.80;;;;;;;12.33;29.34;99185.56;4817157;29;20408;-79
2021/03/09 10:05:47;;;;;;;11.50;6.07;;;;;;;12.40;30.09;99187.91;4824694;29;20026;-79
2021/03/09 10:08:33;;;;;;;10.27;6.57;;;;;;;12.29;29.93;99191.75;4825005;29;20109;-82
2021/03/09 10:11:03;;;;;;;9.60;6.88;;;;;;;12.34;30.51;99205.16;4824808;29;20030;-79
2021/03/09 10:13:28;;;;;;;8.57;5.70;;;;;;;12.29;30.07;99199.81;4839725;29;20094;-80
2021/03/09 10:15:54;;;;;;;9.23;6.53;;;;;;;12.30;30.23;99206.78;4839561;29;20552;-78
2021/03/09 10:18:28;;;;;;;10.15;5.80;;;;;;;12.37;30.58;99199.19;4823733;29;20085;-78
2021/03/09 10:21:08;;;;;;;10.27;6.00;;;;;;;12.46;29.20;99208.25;4848520;29;20101;-78
2021/03/09 10:23:50;;;;;;;10.13;5.63;;;;;;;12.45;28.97;99203.94;4851000;29;20518;-78
2021/03/09 10:26:24;;;;;;;8.48;5.28;;;;;;;12.40;28.00;99205.88;4839478;29;20128;-76
2021/03/09 10:28:59;;;;;;;10.60;5.78;;;;;;;12.36;29.17;99205.66;4834598;29;20106;-76
2021/03/09 10:31:24;;;;;;;7.75;4.82;;;;;;;12.36;28.29;99204.84;4827910;29;20121;-77
2021/03/09 10:34:03;;;;;;;9.23;5.47;;;;;;;12.36;28.49;99192.22;4823826;29;20479;-76
2021/03/09 10:36:49;;;;;;;10.25;5.53;;;;;;;12.33;28.95;99193.59;4824487;29;20034;-77
2021/03/09 10:39:15;;;;;;;10.30;5.72;;;;;;;12.31;27.86;99189.59;4840875;29;20026;-79
2021/03/09 10:41:41;;;;;;;10.15;5.00;;;;;;;12.25;28.82;99194.22;4824141;29;20037;-77
2021/03/09 10:44:06;;;;;;;8.02;4.93;;;;;;;12.28;28.44;99193.66;4824454;29;20029;-80
2021/03/09 10:46:35;;;;;;;8.50;5.35;;;;;;;12.30;29.49;99193.38;4823963;29;20484;-79
2021/03/09 10:49:00;;;;;;;6.95;4.45;;;;;;;12.30;29.33;99185.31;4824373;29;20026;-79
2021/03/09 10:51:26;;;;;;;7.32;5.00;;;;;;;12.31;29.32;99186.94;4824394;29;20094;-79
2021/03/09 10:53:52;;;;;;;6.43;4.72;;;;;;;12.36;29.34;99178.03;4824135;29;20057;-79
2021/03/09 10:56:17;;;;;;;12.07;5.15;;;;;;;12.40;28.95;99181.75;4824323;29;20128;-79
2021/03/09 10:58:42;;;;;;;12.25;6.30;;;;;;;12.46;29.46;99184.09;4824327;29;20038;-78
2021/03/09 11:01:08;;;;;;;8.50;5.40;;;;;;;12.52;29.30;99182.13;4840071;29;20539;-77
2021/03/09 11:03:34;;;;;;;7.75;6.30;;;;;;;12.49;29.11;99178.16;4820752;29;20110;-78
2021/03/09 11:05:59;;;;;;;10.13;6.55;;;;;;;12.53;29.21;99169.53;4822157;29;20054;-79
2021/03/09 11:08:25;;;;;;;9.35;5.32;;;;;;;12.51;28.63;99177.06;4805811;29;20036;-76
2021/03/09 11:10:52;;;;;;;11.05;5.15;;;;;;;12.44;28.89;99170.16;4805608;29;21053;-76
2021/03/09 11:13:18;;;;;;;8.23;5.75;;;;;;;12.44;28.90;99170.16;4805421;29;20121;-76
2021/03/09 11:15:44;;;;;;;11.68;6.72;;;;;;;12.39;28.10;99159.50;4805531;29;20034;-76
2021/03/09 11:18:10;;;;;;;8.52;5.63;;;;;;;12.30;27.68;99170.06;4822005;29;20038;-76
2021/03/09 11:20:38;;;;;;;12.35;6.80;;;;;;;12.26;28.16;99155.59;4820766;29;20103;-76
2021/03/09 11:23:04;;;;;;;7.22;5.57;;;;;;;12.24;28.60;99147.06;4820913;29;20433;-78
2021/03/09 11:25:29;;;;;;;7.63;5.40;;;;;;;12.29;28.67;99148.88;4820795;29;20035;-75
2021/03/09 11:27:55;;;;;;;6.97;5.18;;;;;;;12.30;28.02;99140.56;4819986;29;20087;-75
2021/03/09 11:30:21;;;;;;;6.47;5.40;;;;;;;12.42;28.59;99145.50;4820335;29;20031;-75
2021/03/09 11:32:47;;;;;;;8.38;5.57;;;;;;;12.52;27.89;99135.75;4811522;29;20041;-76
2021/03/09 11:35:13;;;;;;;8.80;5.28;;;;;;;12.57;28.19;99139.19;4823979;29;20026;-77
2021/03/09 11:37:38;;;;;;;10.27;5.50;;;;;;;12.62;27.65;99128.38;4814432;29;20489;-75
2021/03/09 11:40:06;;;;;;;9.50;5.25;;;;;;;12.67;27.77;99124.03;4825906;29;20113;-77
2021/03/09 11:42:32;;;;;;;;;;;;;;;12.76;27.59;99127.69;4824791;29;20045;-77
2021/03/09 11:44:57;;;;;;;9.32;5.30;;;;;;;12.80;27.71;99120.63;4824145;29;19913;-76
2021/03/09 11:47:23;;;;;;;12.48;5.68;;;;;;;12.85;27.50;99120.56;4824485;29;20031;-77
2021/03/09 11:49:48;;;;;;;10.02;6.93;;;;;;;12.85;28.12;99112.50;4803042;29;20071;-77
2021/03/09 11:52:14;;;;;;;8.90;5.40;;;;;;;12.93;27.47;99117.25;4826913;29;20533;-77
2021/03/09 11:54:39;;;;;;;9.15;5.95;;;;;;;13.00;27.74;99116.06;4805653;29;20038;-82
2021/03/09 11:57:05;;;;;;;7.55;5.53;;;;;;;13.01;27.88;99110.44;4807862;29;20034;-82
2021/03/09 11:59:30;;;;;;;7.85;6.00;;;;;;;13.06;27.62;99114.91;4808420;29;20038;-85
2021/03/09 12:01:56;;;;;;;11.73;5.43;;;;;;;13.14;27.34;99108.91;4808039;29;20027;-86
2021/03/09 12:04:22;;;;;;;7.97;5.68;;;;;;;13.19;28.01;99111.50;4817092;29;20420;-85
2021/03/09 12:06:47;;;;;;;10.93;6.63;;;;;;;13.25;28.03;99106.84;4826357;29;20045;-82
2021/03/09 12:09:14;;;;;;;12.80;6.72;;;;;;;13.36;27.46;99110.19;4825465;29;20476;-83
2021/03/09 12:11:39;;;;;;;11.70;7.10;;;;;;;13.47;27.84;99108.16;4824504;29;20038;-82
2021/03/09 12:14:05;;;;;;;11.70;7.25;;;;;;;13.55;27.61;99096.72;4825168;29;20037;-83
2021/03/09 12:16:30;;;;;;;13.10;7.18;;;;;;;13.65;27.36;99093.09;4824507;29;20715;-83
2021/03/09 12:18:56;;;;;;;12.35;7.18;;;;;;;13.71;27.45;99092.72;4827650;29;20041;-80
2021/03/09 12:21:21;;;;;;;9.88;6.40;;;;;;;13.80;27.08;99084.75;4829858;29;20042;-78
2021/03/09 12:23:47;;;;;;;10.38;6.32;;;;;;;13.84;27.23;99082.28;4839799;29;20089;-82
2021/03/09 12:26:12;;;;;;;12.38;6.18;;;;;;;13.91;26.12;99078.13;4824012;29;20034;-78
2021/03/09 12:28:38;;;;;;;10.15;6.38;;;;;;;13.96;25.90;99074.50;4824467;29;20030;-78
2021/03/09 12:31:03;;;;;;;11.77;7.32;;;;;;;14.02;26.22;99078.69;4823950;29;21636;-78
2021/03/09 12:33:29;;;;;;;12.90;6.70;;;;;;;14.04;26.31;99073.84;4825088;29;20061;-78
2021/03/09 12:35:55;;;;;;;11.63;6.93;;;;;;;14.11;26.47;99076.13;4840463;29;20034;-78
2021/03/09 12:38:20;;;;;;;9.80;7.18;;;;;;;14.09;26.75;99067.56;4824273;29;20030;-78
2021/03/09 12:40:46;;;;;;;10.25;6.90;;;;;;;14.10;26.81;99077.22;4824554;29;20097;-78
2021/03/09 12:43:11;;;;;;;12.45;7.80;;;;;;;14.08;26.56;99068.66;4811046;29;20682;-78